ΕΜΥ, Εθνική Μετεωρολογική Υπηρεσία - Δελτία Καιρού, Προγνώσεις

ΑΕΡΟΝΑΥΤΙΛΙΑ

GREEK AIRPORTS CODES

LGST 251000Z 20016G26KT 9999 FEW025 19/12 Q1018 RMK SCT180=

EUROPEAN AIRPORTS CODES

LFPO 251530Z 14010KT 9000 -RA BKN011 08/06 Q0993 NOSIG=